createdAt,value
2022-10-07T00:01:05.506Z,65.00
2022-10-07T00:03:35.694Z,65.95
2022-10-07T00:06:05.629Z,65.96
2022-10-07T00:08:35.670Z,65.97
2022-10-07T00:11:09.274Z,67.18
2022-10-07T00:13:39.777Z,66.38
2022-10-07T00:16:09.607Z,66.41
2022-10-07T00:18:39.299Z,66.57
2022-10-07T00:21:08.801Z,66.46
2022-10-07T00:23:37.072Z,68.43
2022-10-07T00:26:06.108Z,67.29
2022-10-07T00:28:34.487Z,68.23
2022-10-07T00:31:04.911Z,66.12
2022-10-07T00:33:34.994Z,66.61
2022-10-07T00:36:08.057Z,67.08
2022-10-07T00:38:35.895Z,68.14
2022-10-07T00:41:03.755Z,68.26
2022-10-07T00:43:32.774Z,67.71
2022-10-07T00:46:06.808Z,67.19
2022-10-07T00:48:37.247Z,67.43
2022-10-07T00:51:07.952Z,67.45
2022-10-07T00:53:38.767Z,68.12
2022-10-07T00:56:08.764Z,66.49
2022-10-07T00:58:40.882Z,66.34
2022-10-07T01:01:09.013Z,67.30
2022-10-07T01:03:37.884Z,67.24
2022-10-07T01:06:07.347Z,68.95
2022-10-07T01:08:35.562Z,67.32
2022-10-07T01:11:14.075Z,67.10
2022-10-07T01:13:51.810Z,67.36
2022-10-07T01:16:26.209Z,67.37
2022-10-07T01:19:03.799Z,67.44
2022-10-07T01:21:42.620Z,66.97
2022-10-07T01:24:25.659Z,67.12
2022-10-07T01:27:01.109Z,67.34
2022-10-07T01:29:35.140Z,67.59
2022-10-07T01:32:09.030Z,66.21
2022-10-07T01:34:38.589Z,67.45
2022-10-07T01:37:11.812Z,67.29
2022-10-07T01:39:47.329Z,68.08
2022-10-07T01:42:18.537Z,67.70
2022-10-07T01:44:49.401Z,67.82
2022-10-07T01:47:18.143Z,68.25
2022-10-07T01:49:46.472Z,68.03
2022-10-07T01:52:33.407Z,68.07
2022-10-07T01:55:21.468Z,68.06
2022-10-07T01:58:06.221Z,69.48
2022-10-07T02:00:39.169Z,68.65
2022-10-07T02:03:31.083Z,68.27
2022-10-07T02:06:08.106Z,68.15
2022-10-07T02:08:42.730Z,68.03
2022-10-07T02:11:16.104Z,68.61
2022-10-07T02:13:57.949Z,68.99
2022-10-07T02:16:34.743Z,68.89
2022-10-07T02:19:05.698Z,68.67
2022-10-07T02:21:36.964Z,69.05
2022-10-07T02:24:06.459Z,69.36
2022-10-07T02:26:37.167Z,69.18
2022-10-07T02:29:11.168Z,69.41
2022-10-07T02:31:42.489Z,69.69
2022-10-07T02:34:19.595Z,68.83
2022-10-07T02:36:54.659Z,68.90
2022-10-07T02:39:22.563Z,69.20
2022-10-07T02:41:59.812Z,68.97
2022-10-07T02:44:34.184Z,69.63
2022-10-07T02:47:09.734Z,69.02
2022-10-07T02:49:41.017Z,68.83
2022-10-07T02:52:11.820Z,68.37
2022-10-07T02:54:44.566Z,68.64
2022-10-07T02:57:14.839Z,68.53
2022-10-07T02:59:45.219Z,68.79
2022-10-07T03:02:17.890Z,68.91
2022-10-07T03:04:46.242Z,68.39
2022-10-07T03:07:14.520Z,69.20
2022-10-07T03:09:43.453Z,69.12
2022-10-07T03:12:13.356Z,68.56
2022-10-07T03:14:41.519Z,69.29
2022-10-07T03:17:11.354Z,68.19
2022-10-07T03:19:39.135Z,68.25
2022-10-07T03:22:07.649Z,69.21
2022-10-07T03:24:37.696Z,70.46
2022-10-07T03:27:08.971Z,70.35
2022-10-07T03:29:39.894Z,69.88
2022-10-07T03:32:08.881Z,69.87
2022-10-07T03:34:38.332Z,70.60
2022-10-07T03:37:06.223Z,70.34
2022-10-07T03:39:34.118Z,69.74
2022-10-07T03:42:01.962Z,70.01
2022-10-07T03:44:29.896Z,70.15
2022-10-07T03:46:58.843Z,69.73
2022-10-07T03:49:28.030Z,69.86
2022-10-07T03:51:59.364Z,70.38
2022-10-07T03:54:27.392Z,70.20
2022-10-07T03:56:56.067Z,69.74
2022-10-07T03:59:23.924Z,70.66
2022-10-07T04:01:51.825Z,70.20
2022-10-07T04:04:20.603Z,69.01
2022-10-07T04:06:48.955Z,69.41
2022-10-07T04:09:18.176Z,68.82
2022-10-07T04:11:46.073Z,69.69
2022-10-07T04:14:14.446Z,69.77
2022-10-07T04:16:42.840Z,69.27
2022-10-07T04:19:14.188Z,70.41
2022-10-07T04:21:43.208Z,68.95
2022-10-07T04:24:11.019Z,70.42
2022-10-07T04:26:40.284Z,68.59
2022-10-07T04:29:08.247Z,69.41
2022-10-07T04:31:37.398Z,69.25
2022-10-07T04:34:06.848Z,69.48
2022-10-07T04:36:41.008Z,70.24
2022-10-07T04:39:12.299Z,70.08
2022-10-07T04:41:55.949Z,69.45
2022-10-07T04:44:29.611Z,68.81
2022-10-07T04:47:07.714Z,69.74
2022-10-07T04:49:38.187Z,68.89
2022-10-07T04:52:08.619Z,69.41
2022-10-07T04:54:40.317Z,69.95
2022-10-07T04:57:12.248Z,69.49
2022-10-07T04:59:42.834Z,69.46
2022-10-07T05:02:13.480Z,69.53
2022-10-07T05:04:41.500Z,70.13
2022-10-07T05:07:10.482Z,70.03
2022-10-07T05:09:38.575Z,69.61
2022-10-07T05:12:06.869Z,70.26
2022-10-07T05:14:36.203Z,70.19
2022-10-07T05:17:05.318Z,70.26
2022-10-07T05:19:36.024Z,70.48
2022-10-07T05:22:04.275Z,70.24
2022-10-07T05:24:32.750Z,70.92
2022-10-07T05:27:01.805Z,71.06
2022-10-07T05:29:29.817Z,70.16
2022-10-07T05:32:04.528Z,70.98
2022-10-07T05:34:33.174Z,70.67
2022-10-07T05:37:01.276Z,71.11
2022-10-07T05:39:29.220Z,70.55
2022-10-07T05:42:03.355Z,70.84
2022-10-07T05:44:37.866Z,71.11
2022-10-07T05:47:08.355Z,71.16
2022-10-07T05:49:37.292Z,71.92
2022-10-07T05:52:07.738Z,70.72
2022-10-07T05:54:36.299Z,70.58
2022-10-07T05:57:04.715Z,71.56
2022-10-07T05:59:33.384Z,70.95
2022-10-07T06:02:01.631Z,71.21
2022-10-07T06:04:31.690Z,71.24
2022-10-07T06:06:59.721Z,70.80
2022-10-07T06:09:46.582Z,70.07
2022-10-07T06:12:34.644Z,70.86
2022-10-07T06:15:09.529Z,70.20
2022-10-07T06:17:38.327Z,69.97
2022-10-07T06:20:10.081Z,69.38
2022-10-07T06:22:37.993Z,70.95
2022-10-07T06:25:06.627Z,70.20
2022-10-07T06:27:34.866Z,70.87
2022-10-07T06:30:03.047Z,70.17
2022-10-07T06:32:32.614Z,70.73
2022-10-07T06:35:01.126Z,69.90
2022-10-07T06:37:32.848Z,70.87
2022-10-07T06:40:01.592Z,70.75
2022-10-07T06:42:33.140Z,70.21
2022-10-07T06:45:19.321Z,70.14
2022-10-07T06:47:49.144Z,70.52
2022-10-07T06:50:17.235Z,70.09
2022-10-07T06:52:46.431Z,69.43
2022-10-07T06:55:14.799Z,70.12
2022-10-07T06:57:45.923Z,69.66
2022-10-07T07:00:15.618Z,69.66
2022-10-07T07:02:44.837Z,68.89
2022-10-07T07:05:15.701Z,68.74
2022-10-07T07:07:47.565Z,68.95
2022-10-07T07:10:15.927Z,69.47
2022-10-07T07:12:48.141Z,68.20
2022-10-07T07:15:16.449Z,69.10
2022-10-07T07:17:44.732Z,67.90
2022-10-07T07:20:14.302Z,68.42
2022-10-07T07:22:43.341Z,68.78
2022-10-07T07:25:13.120Z,67.69
2022-10-07T07:27:41.173Z,67.04
2022-10-07T07:30:11.809Z,66.25
2022-10-07T07:32:40.239Z,66.55
2022-10-07T07:35:09.142Z,66.20
2022-10-07T07:37:37.306Z,66.33
2022-10-07T07:40:06.267Z,66.05
2022-10-07T07:42:37.293Z,65.19
2022-10-07T07:45:07.138Z,65.69
2022-10-07T07:47:35.652Z,65.80
2022-10-07T07:50:05.025Z,64.53
2022-10-07T07:52:35.168Z,65.37
2022-10-07T07:55:04.893Z,63.94
2022-10-07T07:57:33.185Z,65.95
2022-10-07T08:00:07.747Z,64.93
2022-10-07T08:02:59.809Z,63.59
2022-10-07T08:05:27.720Z,63.35
2022-10-07T08:07:58.332Z,63.14
2022-10-07T08:10:27.538Z,62.79
2022-10-07T08:12:56.689Z,62.90
2022-10-07T08:15:26.124Z,63.85
2022-10-07T08:17:53.956Z,63.42
2022-10-07T08:20:21.809Z,63.13
2022-10-07T08:22:51.016Z,61.68
2022-10-07T08:25:22.350Z,62.90
2022-10-07T08:27:50.621Z,62.27
2022-10-07T08:30:18.952Z,62.65
2022-10-07T08:32:50.349Z,62.92
2022-10-07T08:35:18.352Z,62.88
2022-10-07T08:37:46.373Z,61.12
2022-10-07T08:40:17.798Z,60.71
2022-10-07T08:42:47.531Z,59.50
2022-10-07T08:45:24.041Z,60.56
2022-10-07T08:47:53.544Z,61.43
2022-10-07T08:50:28.368Z,59.93
2022-10-07T08:53:00.195Z,59.91
2022-10-07T08:55:34.187Z,60.78
2022-10-07T08:58:25.306Z,60.35
2022-10-07T09:01:00.942Z,60.06
2022-10-07T09:03:42.010Z,58.64
2022-10-07T09:06:16.160Z,59.28
2022-10-07T09:08:49.028Z,59.91
2022-10-07T09:11:20.505Z,59.14
2022-10-07T09:13:52.222Z,59.43
2022-10-07T09:16:24.291Z,57.50
2022-10-07T09:18:56.920Z,57.44
2022-10-07T09:21:32.515Z,56.25
2022-10-07T09:24:15.241Z,56.07
2022-10-07T09:26:43.724Z,56.48
2022-10-07T09:29:12.100Z,56.10
2022-10-07T09:31:40.982Z,56.30
2022-10-07T09:34:19.411Z,58.09
2022-10-07T09:37:18.263Z,58.45
2022-10-07T09:39:47.733Z,55.93
2022-10-07T09:42:32.743Z,53.11
2022-10-07T09:45:05.608Z,54.21
2022-10-07T09:47:37.566Z,52.52
2022-10-07T09:50:27.581Z,53.09
2022-10-07T09:52:57.751Z,52.46
2022-10-07T09:55:37.450Z,51.25
2022-10-07T09:58:07.217Z,51.91
2022-10-07T10:00:43.863Z,52.28
2022-10-07T10:03:12.595Z,54.36
2022-10-07T10:05:42.404Z,53.11
2022-10-07T10:08:24.946Z,52.29
2022-10-07T10:10:54.836Z,51.46
2022-10-07T10:13:32.671Z,50.42
2022-10-07T10:16:04.450Z,49.87
2022-10-07T10:18:40.834Z,49.39
2022-10-07T10:21:20.123Z,47.05
2022-10-07T10:23:51.844Z,49.52
2022-10-07T10:26:56.057Z,48.32
2022-10-07T10:29:38.719Z,46.53
2022-10-07T10:32:32.835Z,47.27
2022-10-07T10:35:07.654Z,48.00
2022-10-07T10:37:51.092Z,44.37
2022-10-07T10:40:26.789Z,46.06
2022-10-07T10:42:59.322Z,44.41
2022-10-07T10:45:39.048Z,42.46
2022-10-07T10:48:29.991Z,43.14
2022-10-07T10:51:05.986Z,41.09
2022-10-07T10:53:45.848Z,41.36
2022-10-07T10:56:34.273Z,42.56
2022-10-07T10:59:17.496Z,42.44
2022-10-07T11:01:47.856Z,41.42
2022-10-07T11:04:28.658Z,40.32
2022-10-07T11:07:01.307Z,40.17
2022-10-07T11:09:35.666Z,39.14
2022-10-07T11:12:26.200Z,38.66
2022-10-07T11:14:59.569Z,39.59
2022-10-07T11:17:31.778Z,38.54
2022-10-07T11:20:08.542Z,39.08
2022-10-07T11:22:41.596Z,39.00
2022-10-07T11:25:18.932Z,39.19
2022-10-07T11:27:53.167Z,39.52
2022-10-07T11:30:23.256Z,39.14
2022-10-07T11:32:57.353Z,38.28
2022-10-07T11:35:32.027Z,37.94
2022-10-07T11:38:08.102Z,38.17
2022-10-07T11:40:42.451Z,38.82
2022-10-07T11:43:19.881Z,37.95
2022-10-07T11:45:53.639Z,38.04
2022-10-07T11:48:27.108Z,39.68
2022-10-07T11:51:00.589Z,39.09
2022-10-07T11:53:32.819Z,39.81
2022-10-07T11:56:04.646Z,39.64
2022-10-07T11:58:37.362Z,39.47
2022-10-07T12:01:51.499Z,38.94
2022-10-07T12:04:36.815Z,37.94
2022-10-07T12:07:40.231Z,38.54
2022-10-07T12:10:25.227Z,40.93
2022-10-07T12:12:56.298Z,38.83
2022-10-07T12:15:32.418Z,39.75
2022-10-07T12:18:27.699Z,40.71
2022-10-07T12:21:10.004Z,40.36
2022-10-07T12:23:43.856Z,41.13
2022-10-07T12:26:47.528Z,41.48
2022-10-07T12:29:31.313Z,40.94
2022-10-07T12:32:01.045Z,40.19
2022-10-07T12:34:43.486Z,40.99
2022-10-07T12:37:50.425Z,41.67
2022-10-07T12:40:25.875Z,40.60
2022-10-07T12:42:59.892Z,42.13
2022-10-07T12:45:30.222Z,40.53
2022-10-07T12:48:01.938Z,40.65
2022-10-07T12:50:31.876Z,42.22
2022-10-07T12:53:03.599Z,42.85
2022-10-07T12:55:37.101Z,41.72
2022-10-07T12:58:32.330Z,43.09
2022-10-07T13:04:03.184Z,41.50
2022-10-07T13:07:05.096Z,42.84
2022-10-07T13:10:06.031Z,42.37
2022-10-07T13:12:51.314Z,43.43
2022-10-07T13:15:42.607Z,42.01
2022-10-07T13:18:19.480Z,41.85
2022-10-07T13:21:01.801Z,41.18
2022-10-07T13:23:32.377Z,42.75
2022-10-07T13:26:02.810Z,39.61
2022-10-07T13:28:38.361Z,39.38
2022-10-07T13:31:21.617Z,39.86
2022-10-07T13:33:50.910Z,40.35
2022-10-07T13:36:23.321Z,40.92
2022-10-07T13:38:53.622Z,40.30
2022-10-07T13:41:27.766Z,40.33
2022-10-07T13:44:00.089Z,39.45
2022-10-07T13:46:31.333Z,40.81
2022-10-07T13:49:00.458Z,39.74
2022-10-07T13:51:34.639Z,41.27
2022-10-07T13:54:05.021Z,40.84
2022-10-07T13:56:36.021Z,39.38
2022-10-07T13:59:06.616Z,39.86
2022-10-07T14:01:39.887Z,39.97
2022-10-07T14:04:17.592Z,39.28
2022-10-07T14:06:59.950Z,39.49
2022-10-07T14:09:46.137Z,39.90
2022-10-07T14:12:18.349Z,40.11
2022-10-07T14:14:48.536Z,40.40
2022-10-07T14:17:28.326Z,41.26
2022-10-07T14:20:00.132Z,41.46
2022-10-07T14:22:32.477Z,41.87
2022-10-07T14:25:03.611Z,41.14
2022-10-07T14:28:15.980Z,40.43
2022-10-07T14:31:02.602Z,41.10
2022-10-07T14:33:58.398Z,40.45
2022-10-07T14:36:26.927Z,40.44
2022-10-07T14:38:58.239Z,40.14
2022-10-07T14:41:28.879Z,41.19
2022-10-07T14:43:59.999Z,41.28
2022-10-07T14:46:29.254Z,41.83
2022-10-07T14:48:57.361Z,41.46
2022-10-07T14:51:27.399Z,42.11
2022-10-07T14:54:01.957Z,41.00
2022-10-07T14:56:32.496Z,39.90
2022-10-07T14:59:02.924Z,41.39
2022-10-07T15:01:30.962Z,41.35
2022-10-07T15:03:59.099Z,42.05
2022-10-07T15:06:27.381Z,41.78
2022-10-07T15:08:56.800Z,41.06
2022-10-07T15:11:24.588Z,40.95
2022-10-07T15:13:52.485Z,41.29
2022-10-07T15:16:22.912Z,40.67
2022-10-07T15:18:53.046Z,41.24
2022-10-07T15:21:22.649Z,41.87
2022-10-07T15:23:54.092Z,41.40
2022-10-07T15:26:25.343Z,39.65
2022-10-07T15:28:54.343Z,40.88
2022-10-07T15:31:23.255Z,40.95
2022-10-07T15:33:51.700Z,40.92
2022-10-07T15:36:19.543Z,40.52
2022-10-07T15:38:47.371Z,42.51
2022-10-07T15:41:35.150Z,42.07
2022-10-07T15:44:05.936Z,42.02
2022-10-07T15:46:34.218Z,41.63
2022-10-07T15:49:03.520Z,42.35
2022-10-07T15:51:31.651Z,42.59
2022-10-07T15:53:59.542Z,42.78
2022-10-07T15:56:27.524Z,41.52
2022-10-07T15:58:58.512Z,42.10
2022-10-07T16:01:28.155Z,42.23
2022-10-07T16:03:56.344Z,42.92
2022-10-07T16:06:25.994Z,42.54
2022-10-07T16:08:57.785Z,42.74
2022-10-07T16:11:27.397Z,42.31
2022-10-07T16:13:56.931Z,42.87
2022-10-07T16:16:27.309Z,43.46
2022-10-07T16:18:58.070Z,44.01
2022-10-07T16:21:29.198Z,44.83
2022-10-07T16:23:59.495Z,43.89
2022-10-07T16:26:30.092Z,45.34
2022-10-07T16:29:18.561Z,46.79
2022-10-07T16:31:47.788Z,46.74
2022-10-07T16:34:17.548Z,46.93
2022-10-07T16:36:49.217Z,47.68
2022-10-07T16:39:19.101Z,47.53
2022-10-07T16:41:47.983Z,47.07
2022-10-07T16:44:17.201Z,47.32
2022-10-07T16:46:45.183Z,47.50
2022-10-07T16:49:15.466Z,48.01
2022-10-07T16:51:44.557Z,48.17
2022-10-07T16:54:16.566Z,50.86
2022-10-07T16:56:47.900Z,49.42
2022-10-07T16:59:22.451Z,48.49
2022-10-07T17:01:52.615Z,49.16
2022-10-07T17:04:20.769Z,50.52
2022-10-07T17:06:49.145Z,50.41
2022-10-07T17:09:18.270Z,52.45
2022-10-07T17:11:47.312Z,49.74
2022-10-07T17:14:18.872Z,52.43
2022-10-07T17:16:48.311Z,52.79
2022-10-07T17:19:17.931Z,52.42
2022-10-07T17:21:47.519Z,52.91
2022-10-07T17:24:22.862Z,53.34
2022-10-07T17:26:52.415Z,51.17
2022-10-07T17:29:26.193Z,54.17
2022-10-07T17:31:57.828Z,52.47
2022-10-07T17:34:26.141Z,53.89
2022-10-07T17:36:54.135Z,53.65
2022-10-07T17:39:22.291Z,54.58
2022-10-07T17:41:50.142Z,55.23
2022-10-07T17:44:18.603Z,55.41
2022-10-07T17:46:48.916Z,53.03
2022-10-07T17:49:16.942Z,53.47
2022-10-07T17:51:44.870Z,53.99
2022-10-07T17:54:14.287Z,54.98
2022-10-07T17:56:44.328Z,54.29
2022-10-07T17:59:12.309Z,55.68
2022-10-07T18:01:40.328Z,54.91
2022-10-07T18:04:14.813Z,55.07
2022-10-07T18:06:43.326Z,53.57
2022-10-07T18:09:13.988Z,56.95
2022-10-07T18:11:59.869Z,56.31
2022-10-07T18:14:47.736Z,54.94
2022-10-07T18:17:19.257Z,54.66
2022-10-07T18:19:48.577Z,54.02
2022-10-07T18:22:16.449Z,56.49
2022-10-07T18:24:51.673Z,57.27
2022-10-07T18:27:27.005Z,57.41
2022-10-07T18:29:55.004Z,57.15
2022-10-07T18:32:23.637Z,57.15
2022-10-07T18:34:52.827Z,57.25
2022-10-07T18:37:20.737Z,57.33
2022-10-07T18:39:48.591Z,58.21
2022-10-07T18:42:16.400Z,57.21
2022-10-07T18:44:44.226Z,57.54
2022-10-07T18:47:12.053Z,57.14
2022-10-07T18:49:39.945Z,57.68
2022-10-07T18:52:09.396Z,57.41
2022-10-07T18:54:37.211Z,57.90
2022-10-07T18:57:05.217Z,57.90
2022-10-07T18:59:33.054Z,57.11
2022-10-07T19:02:00.938Z,57.80
2022-10-07T19:04:30.252Z,56.96
2022-10-07T19:06:58.067Z,57.96
2022-10-07T19:09:27.272Z,59.07
2022-10-07T19:11:55.151Z,58.51
2022-10-07T19:14:25.829Z,57.59
2022-10-07T19:16:54.181Z,59.04
2022-10-07T19:19:23.852Z,58.94
2022-10-07T19:21:53.437Z,57.65
2022-10-07T19:24:43.468Z,59.41
2022-10-07T19:27:12.704Z,59.00
2022-10-07T19:29:40.502Z,60.52
2022-10-07T19:32:09.061Z,57.83
2022-10-07T19:34:37.422Z,58.34
2022-10-07T19:37:05.321Z,59.16
2022-10-07T19:39:33.424Z,58.33
2022-10-07T19:42:01.271Z,60.24
2022-10-07T19:44:31.768Z,59.74
2022-10-07T19:47:00.941Z,60.19
2022-10-07T19:49:28.867Z,58.00
2022-10-07T19:51:56.662Z,58.96
2022-10-07T19:54:24.481Z,58.97
2022-10-07T19:56:52.343Z,59.15
2022-10-07T19:59:20.156Z,58.97
2022-10-07T20:01:49.715Z,58.80
2022-10-07T20:04:20.716Z,60.05
2022-10-07T20:06:48.805Z,58.61
2022-10-07T20:09:18.564Z,59.49
2022-10-07T20:11:46.781Z,58.92
2022-10-07T20:14:16.142Z,59.74
2022-10-07T20:16:44.538Z,60.26
2022-10-07T20:19:16.381Z,59.73
2022-10-07T20:21:44.275Z,60.47
2022-10-07T20:24:14.418Z,60.03
2022-10-07T20:26:43.900Z,60.62
2022-10-07T20:29:12.117Z,60.47
2022-10-07T20:31:42.122Z,60.88
2022-10-07T20:34:15.464Z,61.39
2022-10-07T20:36:43.710Z,61.89
2022-10-07T20:39:33.971Z,61.24
2022-10-07T20:42:19.516Z,61.51
2022-10-07T20:44:48.229Z,62.08
2022-10-07T20:47:16.086Z,62.11
2022-10-07T20:49:45.380Z,61.38
2022-10-07T20:52:16.677Z,61.63
2022-10-07T20:54:45.093Z,61.32
2022-10-07T20:57:15.277Z,61.71
2022-10-07T20:59:43.531Z,62.15
2022-10-07T21:02:12.014Z,63.42
2022-10-07T21:04:39.984Z,64.00
2022-10-07T21:07:09.498Z,63.38
2022-10-07T21:09:37.384Z,62.09
2022-10-07T21:12:07.356Z,62.98
2022-10-07T21:14:36.585Z,62.26
2022-10-07T21:17:05.381Z,62.06
2022-10-07T21:19:35.494Z,63.29
2022-10-07T21:22:04.088Z,62.77
2022-10-07T21:24:34.317Z,63.26
2022-10-07T21:27:02.887Z,62.74
2022-10-07T21:29:32.180Z,63.80
2022-10-07T21:32:00.890Z,63.32
2022-10-07T21:34:29.773Z,63.68
2022-10-07T21:36:57.920Z,63.28
2022-10-07T21:39:26.498Z,64.02
2022-10-07T21:41:55.764Z,63.90
2022-10-07T21:44:23.602Z,63.97
2022-10-07T21:46:51.486Z,64.50
2022-10-07T21:49:19.306Z,64.83
2022-10-07T21:51:47.275Z,64.01
2022-10-07T21:54:15.838Z,64.62
2022-10-07T21:56:46.212Z,64.93
2022-10-07T21:59:15.937Z,64.94
2022-10-07T22:01:43.791Z,65.31
2022-10-07T22:04:17.330Z,65.28
2022-10-07T22:07:03.127Z,64.02
2022-10-07T22:09:31.389Z,64.46
2022-10-07T22:11:59.262Z,64.94
2022-10-07T22:14:28.655Z,64.24
2022-10-07T22:16:56.696Z,65.01
2022-10-07T22:19:25.245Z,64.88
2022-10-07T22:21:53.299Z,65.83
2022-10-07T22:24:21.136Z,65.73
2022-10-07T22:26:51.134Z,66.12
2022-10-07T22:29:20.683Z,65.27
2022-10-07T22:31:50.041Z,65.29
2022-10-07T22:34:36.078Z,65.40
2022-10-07T22:37:04.347Z,65.83
2022-10-07T22:39:32.259Z,65.55
2022-10-07T22:42:00.953Z,65.53
2022-10-07T22:44:28.799Z,65.51
2022-10-07T22:46:59.327Z,66.17
2022-10-07T22:49:30.014Z,66.08
2022-10-07T22:51:59.816Z,66.57
2022-10-07T22:54:28.245Z,66.35
2022-10-07T22:56:56.097Z,66.43
2022-10-07T22:59:23.967Z,66.47
2022-10-07T23:01:51.781Z,66.90
2022-10-07T23:04:21.317Z,67.06
2022-10-07T23:06:49.275Z,66.84
2022-10-07T23:09:17.151Z,67.48
2022-10-07T23:11:45.669Z,66.66
2022-10-07T23:14:13.595Z,67.27
2022-10-07T23:16:41.881Z,66.58
2022-10-07T23:19:10.305Z,66.73
2022-10-07T23:21:39.729Z,67.28
2022-10-07T23:24:09.842Z,67.63
2022-10-07T23:26:38.309Z,68.23
2022-10-07T23:29:07.596Z,67.96
2022-10-07T23:31:35.536Z,68.14
2022-10-07T23:34:03.856Z,68.68
2022-10-07T23:36:32.957Z,67.77
2022-10-07T23:39:02.234Z,69.17
2022-10-07T23:41:31.684Z,69.22
2022-10-07T23:44:01.808Z,68.74
2022-10-07T23:46:32.747Z,68.47
2022-10-07T23:49:00.961Z,68.81
2022-10-07T23:51:29.451Z,69.98
2022-10-07T23:53:57.786Z,69.56
2022-10-07T23:56:27.184Z,68.57
2022-10-07T23:58:55.054Z,68.47
